sensor_id;sensor_type;location;lat;lon;timestamp;temperature;humidity
14527;DHT22;7350;51.208;4.238;2022-09-09T00:00:17;16.50;99.90
14527;DHT22;7350;51.208;4.238;2022-09-09T00:02:50;16.40;99.90
14527;DHT22;7350;51.208;4.238;2022-09-09T00:05:29;16.30;99.90
14527;DHT22;7350;51.208;4.238;2022-09-09T00:07:59;16.40;99.90
14527;DHT22;7350;51.208;4.238;2022-09-09T00:10:32;16.40;99.90
14527;DHT22;7350;51.208;4.238;2022-09-09T00:13:05;16.40;99.90
14527;DHT22;7350;51.208;4.238;2022-09-09T00:15:40;16.40;99.90
14527;DHT22;7350;51.208;4.238;2022-09-09T00:18:17;16.50;99.90
14527;DHT22;7350;51.208;4.238;2022-09-09T00:20:54;16.60;99.90
14527;DHT22;7350;51.208;4.238;2022-09-09T00:23:27;16.50;99.90
14527;DHT22;7350;51.208;4.238;2022-09-09T00:26:02;16.50;99.90
14527;DHT22;7350;51.208;4.238;2022-09-09T00:28:32;16.40;99.90
14527;DHT22;7350;51.208;4.238;2022-09-09T00:31:07;16.40;99.90
14527;DHT22;7350;51.208;4.238;2022-09-09T00:33:36;16.40;99.90
14527;DHT22;7350;51.208;4.238;2022-09-09T00:36:12;16.50;99.90
14527;DHT22;7350;51.208;4.238;2022-09-09T00:38:43;16.40;99.90
14527;DHT22;7350;51.208;4.238;2022-09-09T00:41:17;16.50;99.90
14527;DHT22;7350;51.208;4.238;2022-09-09T00:43:53;16.40;99.90
14527;DHT22;7350;51.208;4.238;2022-09-09T00:46:41;16.50;99.90
14527;DHT22;7350;51.208;4.238;2022-09-09T00:49:21;16.40;99.90
14527;DHT22;7350;51.208;4.238;2022-09-09T00:51:56;16.40;99.90
14527;DHT22;7350;51.208;4.238;2022-09-09T00:54:36;16.50;99.90
14527;DHT22;7350;51.208;4.238;2022-09-09T00:57:14;16.50;99.90
14527;DHT22;7350;51.208;4.238;2022-09-09T00:59:47;16.50;99.90
14527;DHT22;7350;51.208;4.238;2022-09-09T01:02:26;16.50;99.90
14527;DHT22;7350;51.208;4.238;2022-09-09T01:04:55;16.60;99.90
14527;DHT22;7350;51.208;4.238;2022-09-09T01:07:28;16.60;99.90
14527;DHT22;7350;51.208;4.238;2022-09-09T01:09:57;16.50;99.90
14527;DHT22;7350;51.208;4.238;2022-09-09T01:12:26;16.40;99.90
14527;DHT22;7350;51.208;4.238;2022-09-09T01:15:01;16.30;99.90
14527;DHT22;7350;51.208;4.238;2022-09-09T01:17:32;16.40;99.90
14527;DHT22;7350;51.208;4.238;2022-09-09T01:20:10;16.40;99.90
14527;DHT22;7350;51.208;4.238;2022-09-09T01:22:49;16.30;99.90
14527;DHT22;7350;51.208;4.238;2022-09-09T01:25:26;16.30;99.90
14527;DHT22;7350;51.208;4.238;2022-09-09T01:27:57;16.30;99.90
14527;DHT22;7350;51.208;4.238;2022-09-09T01:30:26;16.10;99.90
14527;DHT22;7350;51.208;4.238;2022-09-09T01:32:56;16.00;99.90
14527;DHT22;7350;51.208;4.238;2022-09-09T01:35:39;15.90;99.90
14527;DHT22;7350;51.208;4.238;2022-09-09T01:38:08;15.80;99.90
14527;DHT22;7350;51.208;4.238;2022-09-09T01:40:36;15.70;99.90
14527;DHT22;7350;51.208;4.238;2022-09-09T01:43:04;15.90;99.90
14527;DHT22;7350;51.208;4.238;2022-09-09T01:45:32;15.90;99.90
14527;DHT22;7350;51.208;4.238;2022-09-09T01:48:00;16.00;99.90
14527;DHT22;7350;51.208;4.238;2022-09-09T01:50:28;16.20;99.90
14527;DHT22;7350;51.208;4.238;2022-09-09T01:52:58;16.20;99.90
14527;DHT22;7350;51.208;4.238;2022-09-09T01:55:29;16.20;99.90
14527;DHT22;7350;51.208;4.238;2022-09-09T01:58:09;16.00;99.90
14527;DHT22;7350;51.208;4.238;2022-09-09T02:00:42;16.00;99.90
14527;DHT22;7350;51.208;4.238;2022-09-09T02:03:20;16.00;99.90
14527;DHT22;7350;51.208;4.238;2022-09-09T02:05:54;16.00;99.90
14527;DHT22;7350;51.208;4.238;2022-09-09T02:08:26;16.00;99.90
14527;DHT22;7350;51.208;4.238;2022-09-09T02:10:58;16.00;99.90
14527;DHT22;7350;51.208;4.238;2022-09-09T02:13:30;16.10;99.90
14527;DHT22;7350;51.208;4.238;2022-09-09T02:16:03;16.00;99.90
14527;DHT22;7350;51.208;4.238;2022-09-09T02:18:36;16.00;99.90
14527;DHT22;7350;51.208;4.238;2022-09-09T02:21:05;16.20;99.90
14527;DHT22;7350;51.208;4.238;2022-09-09T02:23:34;16.10;99.90
14527;DHT22;7350;51.208;4.238;2022-09-09T02:26:02;16.10;99.90
14527;DHT22;7350;51.208;4.238;2022-09-09T02:28:33;16.00;99.90
14527;DHT22;7350;51.208;4.238;2022-09-09T02:31:05;16.10;99.90
14527;DHT22;7350;51.208;4.238;2022-09-09T02:33:35;16.10;99.90
14527;DHT22;7350;51.208;4.238;2022-09-09T02:36:03;15.90;99.90
14527;DHT22;7350;51.208;4.238;2022-09-09T02:38:35;15.90;99.90
14527;DHT22;7350;51.208;4.238;2022-09-09T02:41:03;15.90;99.90
14527;DHT22;7350;51.208;4.238;2022-09-09T02:43:33;15.90;99.90
14527;DHT22;7350;51.208;4.238;2022-09-09T02:46:07;16.00;99.90
14527;DHT22;7350;51.208;4.238;2022-09-09T02:48:43;15.90;99.90
14527;DHT22;7350;51.208;4.238;2022-09-09T02:51:17;16.00;99.90
14527;DHT22;7350;51.208;4.238;2022-09-09T02:53:49;16.00;99.90
14527;DHT22;7350;51.208;4.238;2022-09-09T02:56:20;15.90;99.90
14527;DHT22;7350;51.208;4.238;2022-09-09T02:58:49;15.90;99.90
14527;DHT22;7350;51.208;4.238;2022-09-09T03:01:17;15.80;99.90
14527;DHT22;7350;51.208;4.238;2022-09-09T03:03:44;15.80;99.90
14527;DHT22;7350;51.208;4.238;2022-09-09T03:06:12;16.00;99.90
14527;DHT22;7350;51.208;4.238;2022-09-09T03:08:40;16.20;99.90
14527;DHT22;7350;51.208;4.238;2022-09-09T03:11:07;16.20;99.90
14527;DHT22;7350;51.208;4.238;2022-09-09T03:13:35;16.20;99.90
14527;DHT22;7350;51.208;4.238;2022-09-09T03:16:05;16.10;99.90
14527;DHT22;7350;51.208;4.238;2022-09-09T03:18:31;16.10;99.90
14527;DHT22;7350;51.208;4.238;2022-09-09T03:21:00;16.20;99.90
14527;DHT22;7350;51.208;4.238;2022-09-09T03:23:26;16.20;99.90
14527;DHT22;7350;51.208;4.238;2022-09-09T03:25:53;16.30;99.90
14527;DHT22;7350;51.208;4.238;2022-09-09T03:28:24;16.20;99.90
14527;DHT22;7350;51.208;4.238;2022-09-09T03:30:59;16.40;99.90
14527;DHT22;7350;51.208;4.238;2022-09-09T03:33:27;16.30;99.90
14527;DHT22;7350;51.208;4.238;2022-09-09T03:35:55;16.30;99.90
14527;DHT22;7350;51.208;4.238;2022-09-09T03:38:22;16.40;99.90
14527;DHT22;7350;51.208;4.238;2022-09-09T03:40:50;16.40;99.90
14527;DHT22;7350;51.208;4.238;2022-09-09T03:43:20;16.50;99.90
14527;DHT22;7350;51.208;4.238;2022-09-09T03:45:48;16.50;99.90
14527;DHT22;7350;51.208;4.238;2022-09-09T03:48:15;16.40;99.90
14527;DHT22;7350;51.208;4.238;2022-09-09T03:50:46;16.40;99.90
14527;DHT22;7350;51.208;4.238;2022-09-09T03:53:15;16.50;99.90
14527;DHT22;7350;51.208;4.238;2022-09-09T03:55:44;16.40;99.90
14527;DHT22;7350;51.208;4.238;2022-09-09T03:58:11;16.30;99.90
14527;DHT22;7350;51.208;4.238;2022-09-09T04:00:38;16.40;99.90
14527;DHT22;7350;51.208;4.238;2022-09-09T04:03:08;16.30;99.90
14527;DHT22;7350;51.208;4.238;2022-09-09T04:05:35;16.30;99.90
14527;DHT22;7350;51.208;4.238;2022-09-09T04:08:06;16.30;99.90
14527;DHT22;7350;51.208;4.238;2022-09-09T04:10:34;16.30;99.90
14527;DHT22;7350;51.208;4.238;2022-09-09T04:13:02;16.20;99.90
14527;DHT22;7350;51.208;4.238;2022-09-09T04:15:29;16.20;99.90
14527;DHT22;7350;51.208;4.238;2022-09-09T04:17:56;16.20;99.90
14527;DHT22;7350;51.208;4.238;2022-09-09T04:20:23;16.20;99.90
14527;DHT22;7350;51.208;4.238;2022-09-09T04:22:50;16.20;99.90
14527;DHT22;7350;51.208;4.238;2022-09-09T04:25:19;16.20;99.90
14527;DHT22;7350;51.208;4.238;2022-09-09T04:27:46;16.20;99.90
14527;DHT22;7350;51.208;4.238;2022-09-09T04:30:13;16.20;99.90
14527;DHT22;7350;51.208;4.238;2022-09-09T04:32:40;16.20;99.90
14527;DHT22;7350;51.208;4.238;2022-09-09T04:35:08;16.30;99.90
14527;DHT22;7350;51.208;4.238;2022-09-09T04:37:35;16.20;99.90
14527;DHT22;7350;51.208;4.238;2022-09-09T04:40:02;16.20;99.90
14527;DHT22;7350;51.208;4.238;2022-09-09T04:42:30;16.10;99.90
14527;DHT22;7350;51.208;4.238;2022-09-09T04:45:01;16.10;99.90
14527;DHT22;7350;51.208;4.238;2022-09-09T04:47:28;16.10;99.90
14527;DHT22;7350;51.208;4.238;2022-09-09T04:49:55;16.00;99.90
14527;DHT22;7350;51.208;4.238;2022-09-09T04:52:22;16.20;99.90
14527;DHT22;7350;51.208;4.238;2022-09-09T04:54:49;16.20;99.90
14527;DHT22;7350;51.208;4.238;2022-09-09T04:57:16;16.20;99.90
14527;DHT22;7350;51.208;4.238;2022-09-09T04:59:44;16.20;99.90
14527;DHT22;7350;51.208;4.238;2022-09-09T05:02:11;16.10;99.90
14527;DHT22;7350;51.208;4.238;2022-09-09T05:04:38;16.20;99.90
14527;DHT22;7350;51.208;4.238;2022-09-09T05:07:05;16.10;99.90
14527;DHT22;7350;51.208;4.238;2022-09-09T05:09:32;16.10;99.90
14527;DHT22;7350;51.208;4.238;2022-09-09T05:11:59;16.10;99.90
14527;DHT22;7350;51.208;4.238;2022-09-09T05:14:26;16.10;99.90
14527;DHT22;7350;51.208;4.238;2022-09-09T05:16:57;16.10;99.90
14527;DHT22;7350;51.208;4.238;2022-09-09T05:19:24;16.20;99.90
14527;DHT22;7350;51.208;4.238;2022-09-09T05:21:51;16.10;99.90
14527;DHT22;7350;51.208;4.238;2022-09-09T05:24:18;16.20;99.90
14527;DHT22;7350;51.208;4.238;2022-09-09T05:26:45;16.30;99.90
14527;DHT22;7350;51.208;4.238;2022-09-09T05:29:12;16.30;99.90
14527;DHT22;7350;51.208;4.238;2022-09-09T05:31:39;16.30;99.90
14527;DHT22;7350;51.208;4.238;2022-09-09T05:34:08;16.30;99.90
14527;DHT22;7350;51.208;4.238;2022-09-09T05:36:35;16.40;99.90
14527;DHT22;7350;51.208;4.238;2022-09-09T05:39:02;17.20;99.90
14527;DHT22;7350;51.208;4.238;2022-09-09T05:41:29;16.50;99.90
14527;DHT22;7350;51.208;4.238;2022-09-09T05:43:57;16.50;99.90
14527;DHT22;7350;51.208;4.238;2022-09-09T05:46:26;16.60;99.90
14527;DHT22;7350;51.208;4.238;2022-09-09T05:48:54;16.60;99.90
14527;DHT22;7350;51.208;4.238;2022-09-09T05:51:23;16.70;99.90
14527;DHT22;7350;51.208;4.238;2022-09-09T05:53:52;16.80;99.90
14527;DHT22;7350;51.208;4.238;2022-09-09T05:56:22;16.80;99.90
14527;DHT22;7350;51.208;4.238;2022-09-09T05:58:51;16.80;99.90
14527;DHT22;7350;51.208;4.238;2022-09-09T06:01:21;16.80;99.90
14527;DHT22;7350;51.208;4.238;2022-09-09T06:03:49;16.70;99.90
14527;DHT22;7350;51.208;4.238;2022-09-09T06:06:17;16.70;99.90
14527;DHT22;7350;51.208;4.238;2022-09-09T06:08:49;16.60;99.90
14527;DHT22;7350;51.208;4.238;2022-09-09T06:11:18;16.60;99.90
14527;DHT22;7350;51.208;4.238;2022-09-09T06:13:45;16.50;99.90
14527;DHT22;7350;51.208;4.238;2022-09-09T06:16:15;16.60;99.90
14527;DHT22;7350;51.208;4.238;2022-09-09T06:18:42;16.50;99.90
14527;DHT22;7350;51.208;4.238;2022-09-09T06:21:14;16.60;99.90
14527;DHT22;7350;51.208;4.238;2022-09-09T06:23:42;16.60;99.90
14527;DHT22;7350;51.208;4.238;2022-09-09T06:26:12;16.50;99.90
14527;DHT22;7350;51.208;4.238;2022-09-09T06:28:40;16.60;99.90
14527;DHT22;7350;51.208;4.238;2022-09-09T06:31:09;16.70;99.90
14527;DHT22;7350;51.208;4.238;2022-09-09T06:33:38;16.80;99.90
14527;DHT22;7350;51.208;4.238;2022-09-09T06:36:07;16.80;99.90
14527;DHT22;7350;51.208;4.238;2022-09-09T06:38:36;16.80;99.90
14527;DHT22;7350;51.208;4.238;2022-09-09T06:41:04;16.90;99.90
14527;DHT22;7350;51.208;4.238;2022-09-09T06:43:33;17.00;99.90
14527;DHT22;7350;51.208;4.238;2022-09-09T06:46:02;17.20;99.90
14527;DHT22;7350;51.208;4.238;2022-09-09T06:48:29;17.20;99.90
14527;DHT22;7350;51.208;4.238;2022-09-09T06:51:04;17.30;99.90
14527;DHT22;7350;51.208;4.238;2022-09-09T06:53:32;17.10;99.90
14527;DHT22;7350;51.208;4.238;2022-09-09T06:56:00;17.10;99.90
14527;DHT22;7350;51.208;4.238;2022-09-09T06:58:27;17.20;99.90
14527;DHT22;7350;51.208;4.238;2022-09-09T07:01:03;17.20;99.90
14527;DHT22;7350;51.208;4.238;2022-09-09T07:03:30;17.40;99.90
14527;DHT22;7350;51.208;4.238;2022-09-09T07:06:03;17.70;99.90
14527;DHT22;7350;51.208;4.238;2022-09-09T07:08:30;17.90;99.90
14527;DHT22;7350;51.208;4.238;2022-09-09T07:11:02;17.80;99.90
14527;DHT22;7350;51.208;4.238;2022-09-09T07:13:30;17.80;99.90
14527;DHT22;7350;51.208;4.238;2022-09-09T07:16:04;17.80;99.90
14527;DHT22;7350;51.208;4.238;2022-09-09T07:18:32;17.80;99.90
14527;DHT22;7350;51.208;4.238;2022-09-09T07:21:00;17.80;99.90
14527;DHT22;7350;51.208;4.238;2022-09-09T07:23:27;17.80;99.90
14527;DHT22;7350;51.208;4.238;2022-09-09T07:25:55;17.70;99.90
14527;DHT22;7350;51.208;4.238;2022-09-09T07:28:23;17.50;99.90
14527;DHT22;7350;51.208;4.238;2022-09-09T07:30:55;17.60;99.90
14527;DHT22;7350;51.208;4.238;2022-09-09T07:33:24;17.60;99.90
14527;DHT22;7350;51.208;4.238;2022-09-09T07:35:51;17.50;99.90
14527;DHT22;7350;51.208;4.238;2022-09-09T07:38:20;17.50;99.90
14527;DHT22;7350;51.208;4.238;2022-09-09T07:40:48;17.50;99.90
14527;DHT22;7350;51.208;4.238;2022-09-09T07:43:15;17.70;99.90
14527;DHT22;7350;51.208;4.238;2022-09-09T07:45:42;17.90;99.90
14527;DHT22;7350;51.208;4.238;2022-09-09T07:48:09;18.00;99.90
14527;DHT22;7350;51.208;4.238;2022-09-09T07:50:38;18.10;99.90
14527;DHT22;7350;51.208;4.238;2022-09-09T07:53:05;18.30;99.90
14527;DHT22;7350;51.208;4.238;2022-09-09T07:55:32;18.30;99.90
14527;DHT22;7350;51.208;4.238;2022-09-09T07:57:59;18.40;99.90
14527;DHT22;7350;51.208;4.238;2022-09-09T08:00:26;18.40;99.90
14527;DHT22;7350;51.208;4.238;2022-09-09T08:02:54;18.20;99.90
14527;DHT22;7350;51.208;4.238;2022-09-09T08:05:21;18.20;99.90
14527;DHT22;7350;51.208;4.238;2022-09-09T08:07:50;18.30;99.90
14527;DHT22;7350;51.208;4.238;2022-09-09T08:10:17;18.50;99.90
14527;DHT22;7350;51.208;4.238;2022-09-09T08:12:44;18.50;99.90
14527;DHT22;7350;51.208;4.238;2022-09-09T08:15:11;18.40;99.90
14527;DHT22;7350;51.208;4.238;2022-09-09T08:17:38;18.30;99.90
14527;DHT22;7350;51.208;4.238;2022-09-09T08:20:05;18.50;99.90
14527;DHT22;7350;51.208;4.238;2022-09-09T08:22:32;18.60;99.90
14527;DHT22;7350;51.208;4.238;2022-09-09T08:25:01;18.70;99.90
14527;DHT22;7350;51.208;4.238;2022-09-09T08:27:31;18.80;99.90
14527;DHT22;7350;51.208;4.238;2022-09-09T08:29:58;18.70;99.90
14527;DHT22;7350;51.208;4.238;2022-09-09T08:32:25;18.80;99.90
14527;DHT22;7350;51.208;4.238;2022-09-09T08:34:53;18.90;99.90
14527;DHT22;7350;51.208;4.238;2022-09-09T08:37:19;19.00;99.90
14527;DHT22;7350;51.208;4.238;2022-09-09T08:39:47;19.00;99.90
14527;DHT22;7350;51.208;4.238;2022-09-09T08:42:35;18.90;99.90
14527;DHT22;7350;51.208;4.238;2022-09-09T08:45:23;18.80;99.90
14527;DHT22;7350;51.208;4.238;2022-09-09T08:48:15;18.50;99.90
14527;DHT22;7350;51.208;4.238;2022-09-09T08:50:44;18.60;99.90
14527;DHT22;7350;51.208;4.238;2022-09-09T08:53:17;18.40;99.90
14527;DHT22;7350;51.208;4.238;2022-09-09T08:55:49;18.40;99.90
14527;DHT22;7350;51.208;4.238;2022-09-09T08:58:20;18.40;99.90
14527;DHT22;7350;51.208;4.238;2022-09-09T09:01:00;18.40;99.90
14527;DHT22;7350;51.208;4.238;2022-09-09T09:03:37;18.40;99.90
14527;DHT22;7350;51.208;4.238;2022-09-09T09:06:15;18.40;99.90
14527;DHT22;7350;51.208;4.238;2022-09-09T09:08:49;18.50;99.90
14527;DHT22;7350;51.208;4.238;2022-09-09T09:11:18;18.50;99.90
14527;DHT22;7350;51.208;4.238;2022-09-09T09:13:52;18.40;99.90
14527;DHT22;7350;51.208;4.238;2022-09-09T09:16:26;18.50;99.90
14527;DHT22;7350;51.208;4.238;2022-09-09T09:18:58;18.50;99.90
14527;DHT22;7350;51.208;4.238;2022-09-09T09:21:34;18.40;99.90
14527;DHT22;7350;51.208;4.238;2022-09-09T09:24:07;18.40;99.90
14527;DHT22;7350;51.208;4.238;2022-09-09T09:26:42;18.30;99.90
14527;DHT22;7350;51.208;4.238;2022-09-09T09:29:13;18.20;99.90
14527;DHT22;7350;51.208;4.238;2022-09-09T09:31:43;18.30;99.90
14527;DHT22;7350;51.208;4.238;2022-09-09T09:34:13;18.20;99.90
14527;DHT22;7350;51.208;4.238;2022-09-09T09:36:42;18.30;99.90
14527;DHT22;7350;51.208;4.238;2022-09-09T09:39:22;18.40;99.90
14527;DHT22;7350;51.208;4.238;2022-09-09T09:41:50;18.50;99.90
14527;DHT22;7350;51.208;4.238;2022-09-09T09:44:25;18.30;99.90
14527;DHT22;7350;51.208;4.238;2022-09-09T09:46:53;18.40;99.90
14527;DHT22;7350;51.208;4.238;2022-09-09T09:49:32;18.50;99.90
14527;DHT22;7350;51.208;4.238;2022-09-09T09:52:00;18.50;99.90
14527;DHT22;7350;51.208;4.238;2022-09-09T09:54:29;18.60;99.90
14527;DHT22;7350;51.208;4.238;2022-09-09T09:57:08;18.60;99.90
14527;DHT22;7350;51.208;4.238;2022-09-09T09:59:37;18.60;99.90
14527;DHT22;7350;51.208;4.238;2022-09-09T10:02:24;18.50;99.90
14527;DHT22;7350;51.208;4.238;2022-09-09T10:05:01;18.50;99.90
14527;DHT22;7350;51.208;4.238;2022-09-09T10:07:29;18.50;99.90
14527;DHT22;7350;51.208;4.238;2022-09-09T10:09:56;18.60;99.90
14527;DHT22;7350;51.208;4.238;2022-09-09T10:12:33;18.80;99.90
14527;DHT22;7350;51.208;4.238;2022-09-09T10:15:18;19.00;99.90
14527;DHT22;7350;51.208;4.238;2022-09-09T10:17:54;19.10;99.90
14527;DHT22;7350;51.208;4.238;2022-09-09T10:20:34;19.10;99.90
14527;DHT22;7350;51.208;4.238;2022-09-09T10:23:14;19.20;99.90
14527;DHT22;7350;51.208;4.238;2022-09-09T10:26:07;19.30;99.90
14527;DHT22;7350;51.208;4.238;2022-09-09T10:28:52;19.40;99.90
14527;DHT22;7350;51.208;4.238;2022-09-09T10:31:29;19.50;99.90
14527;DHT22;7350;51.208;4.238;2022-09-09T10:34:03;19.70;99.90
14527;DHT22;7350;51.208;4.238;2022-09-09T10:36:34;19.80;99.90
14527;DHT22;7350;51.208;4.238;2022-09-09T10:39:04;19.70;99.90
14527;DHT22;7350;51.208;4.238;2022-09-09T10:41:43;19.70;99.90
14527;DHT22;7350;51.208;4.238;2022-09-09T10:44:24;19.80;99.90
14527;DHT22;7350;51.208;4.238;2022-09-09T10:47:21;20.00;99.90
14527;DHT22;7350;51.208;4.238;2022-09-09T10:50:11;19.90;99.90
14527;DHT22;7350;51.208;4.238;2022-09-09T10:52:47;20.00;99.90
14527;DHT22;7350;51.208;4.238;2022-09-09T10:55:23;20.10;99.90
14527;DHT22;7350;51.208;4.238;2022-09-09T10:57:54;20.20;99.90
14527;DHT22;7350;51.208;4.238;2022-09-09T11:00:24;20.20;99.90
14527;DHT22;7350;51.208;4.238;2022-09-09T11:02:56;20.10;99.90
14527;DHT22;7350;51.208;4.238;2022-09-09T11:05:28;20.10;99.90
14527;DHT22;7350;51.208;4.238;2022-09-09T11:07:59;20.10;99.90
14527;DHT22;7350;51.208;4.238;2022-09-09T11:10:33;20.10;99.90
14527;DHT22;7350;51.208;4.238;2022-09-09T11:13:04;20.10;99.90
14527;DHT22;7350;51.208;4.238;2022-09-09T11:15:36;20.10;99.90
14527;DHT22;7350;51.208;4.238;2022-09-09T11:18:13;20.30;99.90
14527;DHT22;7350;51.208;4.238;2022-09-09T11:20:41;20.40;99.90
14527;DHT22;7350;51.208;4.238;2022-09-09T11:23:13;20.50;99.90
14527;DHT22;7350;51.208;4.238;2022-09-09T11:25:45;20.70;99.90
14527;DHT22;7350;51.208;4.238;2022-09-09T11:28:27;20.80;99.90
14527;DHT22;7350;51.208;4.238;2022-09-09T11:31:07;21.00;99.90
14527;DHT22;7350;51.208;4.238;2022-09-09T11:34:09;21.10;99.90
14527;DHT22;7350;51.208;4.238;2022-09-09T11:39:50;21.40;99.90
14527;DHT22;7350;51.208;4.238;2022-09-09T11:42:20;21.20;99.90
14527;DHT22;7350;51.208;4.238;2022-09-09T11:44:49;21.40;99.90
14527;DHT22;7350;51.208;4.238;2022-09-09T11:47:20;21.40;99.90
14527;DHT22;7350;51.208;4.238;2022-09-09T11:49:51;21.20;99.90
14527;DHT22;7350;51.208;4.238;2022-09-09T11:52:23;21.20;99.90
14527;DHT22;7350;51.208;4.238;2022-09-09T11:54:54;21.30;99.90
14527;DHT22;7350;51.208;4.238;2022-09-09T11:57:28;21.50;99.90
14527;DHT22;7350;51.208;4.238;2022-09-09T11:59:57;21.70;99.90
14527;DHT22;7350;51.208;4.238;2022-09-09T12:02:26;21.70;99.90
14527;DHT22;7350;51.208;4.238;2022-09-09T12:05:02;21.80;99.90
14527;DHT22;7350;51.208;4.238;2022-09-09T12:07:36;21.70;99.90
14527;DHT22;7350;51.208;4.238;2022-09-09T12:10:20;21.60;99.90
14527;DHT22;7350;51.208;4.238;2022-09-09T12:12:49;21.50;99.90
14527;DHT22;7350;51.208;4.238;2022-09-09T12:15:22;21.40;99.90
14527;DHT22;7350;51.208;4.238;2022-09-09T12:17:51;21.50;99.90
14527;DHT22;7350;51.208;4.238;2022-09-09T12:20:21;21.60;99.90
14527;DHT22;7350;51.208;4.238;2022-09-09T12:23:02;21.60;99.90
14527;DHT22;7350;51.208;4.238;2022-09-09T12:25:40;21.60;99.90
14527;DHT22;7350;51.208;4.238;2022-09-09T12:28:17;21.80;99.90
14527;DHT22;7350;51.208;4.238;2022-09-09T12:30:50;21.90;99.90
14527;DHT22;7350;51.208;4.238;2022-09-09T12:33:19;21.80;99.90
14527;DHT22;7350;51.208;4.238;2022-09-09T12:35:51;21.50;99.90
14527;DHT22;7350;51.208;4.238;2022-09-09T12:38:26;21.30;99.90
14527;DHT22;7350;51.208;4.238;2022-09-09T12:40:56;21.30;99.90
14527;DHT22;7350;51.208;4.238;2022-09-09T12:43:25;21.50;99.90
14527;DHT22;7350;51.208;4.238;2022-09-09T12:45:54;21.60;99.90
14527;DHT22;7350;51.208;4.238;2022-09-09T12:48:31;21.70;99.90
14527;DHT22;7350;51.208;4.238;2022-09-09T12:51:01;22.00;99.90
14527;DHT22;7350;51.208;4.238;2022-09-09T12:53:31;22.10;99.90
14527;DHT22;7350;51.208;4.238;2022-09-09T12:56:01;22.40;99.90
14527;DHT22;7350;51.208;4.238;2022-09-09T12:58:30;22.80;99.90
14527;DHT22;7350;51.208;4.238;2022-09-09T13:01:01;23.00;99.90
14527;DHT22;7350;51.208;4.238;2022-09-09T13:03:31;22.90;99.90
14527;DHT22;7350;51.208;4.238;2022-09-09T13:05:59;22.70;99.90
14527;DHT22;7350;51.208;4.238;2022-09-09T13:08:38;22.80;99.90
14527;DHT22;7350;51.208;4.238;2022-09-09T13:11:11;22.80;99.90
14527;DHT22;7350;51.208;4.238;2022-09-09T13:13:41;22.90;99.90
14527;DHT22;7350;51.208;4.238;2022-09-09T13:16:20;22.60;99.90
14527;DHT22;7350;51.208;4.238;2022-09-09T13:18:47;22.50;99.90
14527;DHT22;7350;51.208;4.238;2022-09-09T13:21:15;22.50;99.90
14527;DHT22;7350;51.208;4.238;2022-09-09T13:23:49;22.40;99.90
14527;DHT22;7350;51.208;4.238;2022-09-09T13:26:23;22.50;99.90
14527;DHT22;7350;51.208;4.238;2022-09-09T13:28:51;22.50;99.90
14527;DHT22;7350;51.208;4.238;2022-09-09T13:31:22;22.50;99.90
14527;DHT22;7350;51.208;4.238;2022-09-09T13:33:50;22.50;99.90
14527;DHT22;7350;51.208;4.238;2022-09-09T13:36:27;22.30;99.90
14527;DHT22;7350;51.208;4.238;2022-09-09T13:38:58;22.40;99.90
14527;DHT22;7350;51.208;4.238;2022-09-09T13:41:29;22.20;99.90
14527;DHT22;7350;51.208;4.238;2022-09-09T13:43:59;22.10;99.90
14527;DHT22;7350;51.208;4.238;2022-09-09T13:46:31;22.10;99.90
14527;DHT22;7350;51.208;4.238;2022-09-09T13:49:00;22.20;99.90
14527;DHT22;7350;51.208;4.238;2022-09-09T13:51:33;22.30;99.90
14527;DHT22;7350;51.208;4.238;2022-09-09T13:54:04;22.40;99.90
14527;DHT22;7350;51.208;4.238;2022-09-09T13:56:32;22.40;99.90
14527;DHT22;7350;51.208;4.238;2022-09-09T13:58:59;22.50;99.90
14527;DHT22;7350;51.208;4.238;2022-09-09T14:01:26;22.60;99.90
14527;DHT22;7350;51.208;4.238;2022-09-09T14:03:53;22.80;99.90
14527;DHT22;7350;51.208;4.238;2022-09-09T14:06:21;22.90;99.90
14527;DHT22;7350;51.208;4.238;2022-09-09T14:08:49;22.90;99.90
14527;DHT22;7350;51.208;4.238;2022-09-09T14:11:18;22.90;99.90
14527;DHT22;7350;51.208;4.238;2022-09-09T14:13:47;22.70;99.90
14527;DHT22;7350;51.208;4.238;2022-09-09T14:16:15;22.80;99.90
14527;DHT22;7350;51.208;4.238;2022-09-09T14:18:42;22.80;99.90
14527;DHT22;7350;51.208;4.238;2022-09-09T14:21:10;22.60;99.90
14527;DHT22;7350;51.208;4.238;2022-09-09T14:23:37;22.70;99.90
14527;DHT22;7350;51.208;4.238;2022-09-09T14:26:04;22.50;99.90
14527;DHT22;7350;51.208;4.238;2022-09-09T14:28:33;22.40;99.90
14527;DHT22;7350;51.208;4.238;2022-09-09T14:31:00;22.60;99.90
14527;DHT22;7350;51.208;4.238;2022-09-09T14:33:28;23.00;99.90
14527;DHT22;7350;51.208;4.238;2022-09-09T14:35:56;23.20;99.90
14527;DHT22;7350;51.208;4.238;2022-09-09T14:38:24;23.20;99.90
14527;DHT22;7350;51.208;4.238;2022-09-09T14:40:51;22.90;99.90
14527;DHT22;7350;51.208;4.238;2022-09-09T14:43:18;22.80;99.90
14527;DHT22;7350;51.208;4.238;2022-09-09T14:45:47;22.50;99.90
14527;DHT22;7350;51.208;4.238;2022-09-09T14:48:15;22.20;99.90
14527;DHT22;7350;51.208;4.238;2022-09-09T14:50:42;21.80;99.90
14527;DHT22;7350;51.208;4.238;2022-09-09T14:53:09;21.50;99.90
14527;DHT22;7350;51.208;4.238;2022-09-09T14:55:37;21.30;99.90
14527;DHT22;7350;51.208;4.238;2022-09-09T14:58:04;21.00;99.90
14527;DHT22;7350;51.208;4.238;2022-09-09T15:00:32;20.90;99.90
14527;DHT22;7350;51.208;4.238;2022-09-09T15:03:00;20.90;99.90
14527;DHT22;7350;51.208;4.238;2022-09-09T15:05:27;20.90;99.90
14527;DHT22;7350;51.208;4.238;2022-09-09T15:07:54;21.10;99.90
14527;DHT22;7350;51.208;4.238;2022-09-09T15:10:22;21.10;99.90
14527;DHT22;7350;51.208;4.238;2022-09-09T15:12:49;20.90;99.90
14527;DHT22;7350;51.208;4.238;2022-09-09T15:15:15;20.90;99.90
14527;DHT22;7350;51.208;4.238;2022-09-09T15:17:42;20.90;99.90
14527;DHT22;7350;51.208;4.238;2022-09-09T15:20:11;20.90;99.90
14527;DHT22;7350;51.208;4.238;2022-09-09T15:22:38;20.90;99.90
14527;DHT22;7350;51.208;4.238;2022-09-09T15:25:06;20.80;99.90
14527;DHT22;7350;51.208;4.238;2022-09-09T15:27:33;20.70;99.90
14527;DHT22;7350;51.208;4.238;2022-09-09T15:30:00;20.60;99.90
14527;DHT22;7350;51.208;4.238;2022-09-09T15:32:28;20.50;99.90
14527;DHT22;7350;51.208;4.238;2022-09-09T15:34:55;20.30;99.90
14527;DHT22;7350;51.208;4.238;2022-09-09T15:37:23;20.20;99.90
14527;DHT22;7350;51.208;4.238;2022-09-09T15:39:50;20.20;99.90
14527;DHT22;7350;51.208;4.238;2022-09-09T15:42:17;20.30;99.90
14527;DHT22;7350;51.208;4.238;2022-09-09T15:44:44;20.20;99.90
14527;DHT22;7350;51.208;4.238;2022-09-09T15:47:12;20.20;99.90
14527;DHT22;7350;51.208;4.238;2022-09-09T15:49:40;20.10;99.90
14527;DHT22;7350;51.208;4.238;2022-09-09T15:52:10;20.20;99.90
14527;DHT22;7350;51.208;4.238;2022-09-09T15:54:38;20.30;99.90
14527;DHT22;7350;51.208;4.238;2022-09-09T15:57:07;20.60;99.90
14527;DHT22;7350;51.208;4.238;2022-09-09T15:59:34;20.70;99.90
14527;DHT22;7350;51.208;4.238;2022-09-09T16:02:01;20.70;99.90
14527;DHT22;7350;51.208;4.238;2022-09-09T16:04:29;20.70;99.90
14527;DHT22;7350;51.208;4.238;2022-09-09T16:06:59;20.70;99.90
14527;DHT22;7350;51.208;4.238;2022-09-09T16:09:26;20.80;99.90